Time;durP1;ratioP1;P1;durP2;ratioP2;P2;SDS_P1;SDS_P2;PMS_P1;PMS_P2;Temp;Humidity;BMP_temperature;BMP_pressure;BME280_temperature;BME280_humidity;BME280_pressure;Samples;Min_cycle;Max_cycle;Signal;HPM_P1;HPM_P2
2023/09/14 00:02:15;;;;;;;1.50;0.90;;;23.20;90.40;;;;;;5080763;28;45127;-57
2023/09/14 00:04:42;;;;;;;2.17;0.95;;;23.20;90.40;;;;;;5082082;28;47632;-57
2023/09/14 00:07:09;;;;;;;2.35;1.23;;;23.20;90.40;;;;;;5078376;28;45106;-57
2023/09/14 00:09:37;;;;;;;2.33;1.20;;;23.10;90.30;;;;;;5081213;28;45222;-57
2023/09/14 00:12:05;;;;;;;1.92;0.93;;;23.10;90.30;;;;;;5084397;27;45460;-56
2023/09/14 00:14:32;;;;;;;3.53;1.35;;;23.10;90.30;;;;;;5077522;28;46028;-57
2023/09/14 00:16:59;;;;;;;1.60;0.93;;;23.10;90.30;;;;;;5078830;28;45273;-56
2023/09/14 00:19:26;;;;;;;1.23;0.88;;;23.20;90.30;;;;;;5081858;28;45082;-56
2023/09/14 00:21:53;;;;;;;1.80;1.10;;;23.10;90.30;;;;;;5076602;28;45130;-56
2023/09/14 00:24:20;;;;;;;1.23;0.85;;;23.10;90.30;;;;;;5080780;27;45244;-57
2023/09/14 00:26:48;;;;;;;1.63;1.08;;;23.10;90.20;;;;;;5079685;27;45115;-56
2023/09/14 00:29:15;;;;;;;2.53;1.00;;;23.10;90.20;;;;;;5076363;28;45324;-56
2023/09/14 00:31:42;;;;;;;1.65;0.90;;;23.20;90.20;;;;;;5070591;28;44757;-57
2023/09/14 00:34:08;;;;;;;2.35;1.10;;;23.10;90.20;;;;;;5074732;28;46064;-57
2023/09/14 00:36:35;;;;;;;2.65;1.00;;;23.10;90.20;;;;;;5084652;27;45150;-56
2023/09/14 00:39:03;;;;;;;2.08;1.10;;;23.20;90.20;;;;;;5076270;27;45190;-56
2023/09/14 00:41:30;;;;;;;2.15;0.98;;;23.20;90.20;;;;;;5078844;27;44931;-57
2023/09/14 00:43:58;;;;;;;1.35;0.80;;;23.20;90.20;;;;;;5085094;27;46386;-57
2023/09/14 00:46:25;;;;;;;1.35;1.10;;;23.10;90.10;;;;;;5082224;28;45101;-56
2023/09/14 00:48:52;;;;;;;2.38;1.00;;;23.20;90.10;;;;;;5079294;27;45401;-57
2023/09/14 00:51:19;;;;;;;2.60;1.30;;;23.20;90.10;;;;;;5080597;28;45404;-57
2023/09/14 00:53:47;;;;;;;1.77;0.95;;;23.20;90.10;;;;;;5083761;28;47103;-57
2023/09/14 00:56:14;;;;;;;2.30;1.10;;;23.20;90.00;;;;;;5077574;28;45145;-56
2023/09/14 00:58:41;;;;;;;2.50;1.00;;;23.10;90.00;;;;;;5078729;27;45138;-56
2023/09/14 01:01:10;;;;;;;2.03;1.17;;;23.10;90.00;;;;;;5079377;28;45211;-56
2023/09/14 01:03:37;;;;;;;1.67;0.93;;;23.20;90.00;;;;;;5078630;27;47580;-56
2023/09/14 01:06:04;;;;;;;1.70;1.08;;;23.10;90.00;;;;;;5075318;28;45155;-56
2023/09/14 01:08:31;;;;;;;2.55;1.00;;;23.10;90.00;;;;;;5081640;27;45319;-56
2023/09/14 01:10:57;;;;;;;2.05;1.13;;;23.10;90.00;;;;;;5073397;28;45352;-56
2023/09/14 01:13:31;;;;;;;1.85;1.00;;;23.10;90.00;;;;;;5082085;28;45171;-56
2023/09/14 01:16:07;;;;;;;2.03;1.10;;;23.10;89.90;;;;;;5085012;27;44702;-56
2023/09/14 01:18:47;;;;;;;2.00;0.88;;;23.10;89.90;;;;;;5079068;28;45259;-56
2023/09/14 01:21:36;;;;;;;1.17;0.80;;;23.10;89.80;;;;;;5075396;28;45139;-56
2023/09/14 01:24:17;;;;;;;2.42;1.10;;;23.10;89.80;;;;;;5078404;28;46289;-56
2023/09/14 01:26:46;;;;;;;3.70;1.00;;;23.10;89.80;;;;;;5070308;27;45272;-56
2023/09/14 01:29:12;;;;;;;0.85;0.85;;;23.10;89.80;;;;;;5080039;27;45266;-56
2023/09/14 01:31:41;;;;;;;1.50;1.08;;;23.10;89.80;;;;;;5076342;27;45277;-56
2023/09/14 01:34:08;;;;;;;0.93;0.80;;;23.10;89.80;;;;;;5073908;28;47929;-56
2023/09/14 01:36:42;;;;;;;1.98;0.93;;;23.10;89.80;;;;;;5079692;28;45150;-56
2023/09/14 01:39:10;;;;;;;0.85;0.73;;;23.10;89.70;;;;;;5082752;27;45158;-56
2023/09/14 01:41:37;;;;;;;1.90;0.82;;;23.10;89.60;;;;;;5080660;28;45197;-56
2023/09/14 01:44:06;;;;;;;1.05;0.77;;;23.10;89.60;;;;;;5084143;28;46032;-56
2023/09/14 01:46:34;;;;;;;1.50;0.82;;;23.10;89.40;;;;;;5080146;27;45250;-56
2023/09/14 01:49:01;;;;;;;1.50;0.90;;;23.10;89.40;;;;;;5082926;28;45171;-56
2023/09/14 01:51:29;;;;;;;2.75;0.90;;;23.10;89.30;;;;;;5083109;28;45238;-56
2023/09/14 01:53:56;;;;;;;2.05;0.95;;;23.10;89.20;;;;;;5083484;27;45266;-56
2023/09/14 01:56:23;;;;;;;0.90;0.85;;;23.10;89.20;;;;;;5081070;28;44589;-56
2023/09/14 01:58:50;;;;;;;1.88;0.80;;;23.10;89.10;;;;;;5080107;28;45111;-56
2023/09/14 02:01:18;;;;;;;1.65;0.90;;;23.10;89.10;;;;;;5084135;28;45346;-56
2023/09/14 02:03:45;;;;;;;1.10;0.80;;;23.10;89.00;;;;;;5078929;28;46336;-56
2023/09/14 02:06:12;;;;;;;1.63;1.00;;;23.10;89.00;;;;;;5075479;28;45331;-56
2023/09/14 02:08:38;;;;;;;1.83;0.90;;;23.10;88.90;;;;;;5084572;28;45067;-56
2023/09/14 02:11:05;;;;;;;0.90;0.57;;;23.10;88.80;;;;;;5072920;28;45197;-56
2023/09/14 02:13:34;;;;;;;0.95;0.77;;;23.10;88.80;;;;;;5075545;28;46236;-56
2023/09/14 02:16:01;;;;;;;2.45;0.85;;;23.10;88.80;;;;;;5072755;27;45173;-56
2023/09/14 02:18:30;;;;;;;1.65;0.88;;;23.10;88.70;;;;;;5079551;28;45247;-56
2023/09/14 02:20:57;;;;;;;1.88;0.90;;;23.10;88.70;;;;;;5082058;28;45177;-56
2023/09/14 02:23:24;;;;;;;1.08;0.82;;;23.10;88.70;;;;;;5083468;28;47006;-56
2023/09/14 02:25:51;;;;;;;2.60;1.02;;;23.10;88.70;;;;;;5072487;28;45233;-56
2023/09/14 02:28:19;;;;;;;1.63;0.98;;;23.10;88.70;;;;;;5073856;28;45222;-56
2023/09/14 02:30:47;;;;;;;2.38;0.90;;;23.10;88.70;;;;;;5080366;28;45446;-56
2023/09/14 02:33:14;;;;;;;1.38;0.90;;;23.10;88.60;;;;;;5081219;28;45314;-56
2023/09/14 02:35:45;;;;;;;3.42;0.63;;;23.10;88.50;;;;;;5080861;28;45102;-56
2023/09/14 02:38:12;;;;;;;2.63;1.10;;;23.10;88.60;;;;;;5082840;27;45199;-56
2023/09/14 02:40:39;;;;;;;1.35;0.80;;;23.10;88.50;;;;;;5074590;28;45031;-56
2023/09/14 02:43:06;;;;;;;1.60;1.00;;;23.10;88.50;;;;;;5078897;28;45175;-56
2023/09/14 02:45:32;;;;;;;1.98;0.90;;;23.10;88.50;;;;;;5076970;28;45198;-56
2023/09/14 02:47:59;;;;;;;1.40;0.70;;;23.10;88.50;;;;;;5081763;28;45137;-56
2023/09/14 02:50:26;;;;;;;1.45;0.70;;;23.10;88.50;;;;;;5083958;28;45119;-56
2023/09/14 02:52:54;;;;;;;1.63;0.80;;;23.00;88.40;;;;;;5081449;28;45192;-56
2023/09/14 02:55:21;;;;;;;1.95;0.98;;;23.00;88.40;;;;;;5083271;28;45151;-56
2023/09/14 02:57:48;;;;;;;2.88;1.15;;;23.10;88.40;;;;;;5076425;28;45350;-56
2023/09/14 03:00:17;;;;;;;2.33;1.00;;;23.00;88.30;;;;;;5072180;28;45265;-56
2023/09/14 03:02:43;;;;;;;1.42;0.90;;;23.00;88.30;;;;;;5073762;28;46620;-56
2023/09/14 03:05:12;;;;;;;1.27;0.80;;;23.00;88.40;;;;;;5076564;27;45122;-56
2023/09/14 03:07:39;;;;;;;2.05;1.17;;;23.00;88.40;;;;;;5085247;28;45247;-56
2023/09/14 03:10:09;;;;;;;2.53;1.00;;;23.00;88.30;;;;;;5080464;28;45110;-56
2023/09/14 03:12:36;;;;;;;1.70;1.08;;;23.00;88.30;;;;;;5076383;28;47459;-56
2023/09/14 03:15:03;;;;;;;1.73;1.00;;;23.00;89.30;;;;;;5082251;28;45144;-56
2023/09/14 03:17:30;;;;;;;1.77;0.88;;;23.00;89.20;;;;;;5084285;27;45103;-56
2023/09/14 03:19:57;;;;;;;1.42;0.70;;;23.00;88.10;;;;;;5079067;28;44648;-56
2023/09/14 03:22:24;;;;;;;2.08;1.08;;;23.00;88.00;;;;;;5083193;28;46456;-56
2023/09/14 03:24:51;;;;;;;2.20;1.10;;;23.00;88.00;;;;;;5086438;28;45117;-56
2023/09/14 03:27:19;;;;;;;2.45;0.90;;;23.00;87.80;;;;;;5081439;28;45122;-56
2023/09/14 03:29:45;;;;;;;2.85;1.00;;;23.00;87.90;;;;;;5080408;28;45095;-56
2023/09/14 03:32:12;;;;;;;1.52;0.82;;;23.00;87.80;;;;;;5071488;28;45198;-56
2023/09/14 03:34:39;;;;;;;3.67;1.40;;;23.10;87.90;;;;;;5077632;28;45184;-56
2023/09/14 03:37:06;;;;;;;1.98;0.80;;;23.00;87.80;;;;;;5081193;27;44750;-56
2023/09/14 03:39:32;;;;;;;4.32;1.08;;;23.00;87.70;;;;;;5085251;27;45275;-56
2023/09/14 03:41:59;;;;;;;1.17;0.82;;;23.00;87.70;;;;;;5084390;28;47213;-56
2023/09/14 03:44:27;;;;;;;2.13;0.98;;;23.00;87.60;;;;;;5079161;28;45415;-56
2023/09/14 03:46:54;;;;;;;3.65;1.10;;;23.00;87.60;;;;;;5081034;28;45264;-56
2023/09/14 03:49:21;;;;;;;1.83;0.90;;;23.00;87.50;;;;;;5086309;27;45104;-56
2023/09/14 03:51:48;;;;;;;1.27;0.90;;;23.00;87.50;;;;;;5081264;28;47228;-56
2023/09/14 03:54:14;;;;;;;1.30;0.80;;;23.00;87.50;;;;;;5078898;28;45625;-56
2023/09/14 03:56:41;;;;;;;1.85;1.10;;;23.00;87.30;;;;;;5084184;28;45251;-56
2023/09/14 03:59:08;;;;;;;4.35;1.40;;;23.00;87.20;;;;;;5086925;28;45261;-56
2023/09/14 04:01:36;;;;;;;2.90;1.20;;;23.00;87.20;;;;;;5080091;28;46121;-56
2023/09/14 04:04:03;;;;;;;1.63;0.90;;;23.00;87.20;;;;;;5077934;28;45133;-56
2023/09/14 04:06:30;;;;;;;1.65;0.93;;;23.00;87.10;;;;;;5084484;27;45370;-56
2023/09/14 04:08:57;;;;;;;1.70;0.93;;;23.00;87.10;;;;;;5086686;28;45052;-56
2023/09/14 04:11:24;;;;;;;0.70;0.70;;;23.00;87.10;;;;;;5084943;28;46391;-56
2023/09/14 04:13:51;;;;;;;1.85;0.90;;;23.00;87.10;;;;;;5084304;28;45043;-56
2023/09/14 04:16:18;;;;;;;1.65;1.00;;;23.00;87.10;;;;;;5077490;27;45258;-56
2023/09/14 04:18:46;;;;;;;1.63;0.98;;;23.00;87.10;;;;;;5076857;28;45193;-56
2023/09/14 04:21:13;;;;;;;1.73;1.10;;;23.00;87.10;;;;;;5080141;27;46375;-56
2023/09/14 04:23:39;;;;;;;1.40;0.90;;;23.00;87.00;;;;;;5075753;28;45191;-56
2023/09/14 04:26:06;;;;;;;2.15;1.02;;;23.00;87.00;;;;;;5083369;28;45241;-56
2023/09/14 04:28:33;;;;;;;2.03;1.10;;;23.00;87.00;;;;;;5083614;28;45120;-56
2023/09/14 04:31:02;;;;;;;0.90;0.80;;;23.00;87.00;;;;;;5078353;28;47286;-55
2023/09/14 04:33:29;;;;;;;2.83;1.00;;;23.00;87.00;;;;;;5084284;27;45176;-55
2023/09/14 04:35:58;;;;;;;1.92;1.00;;;23.00;86.80;;;;;;5080596;28;45170;-55
2023/09/14 04:38:25;;;;;;;1.88;0.98;;;23.00;86.90;;;;;;5082657;27;45264;-55
2023/09/14 04:40:52;;;;;;;1.52;0.80;;;23.00;86.90;;;;;;5081163;28;47112;-55
2023/09/14 04:43:20;;;;;;;2.20;0.90;;;23.00;86.80;;;;;;5081794;27;45228;-56
2023/09/14 04:45:47;;;;;;;1.27;0.93;;;23.00;86.70;;;;;;5079891;28;45299;-57
2023/09/14 04:48:14;;;;;;;1.10;0.82;;;23.00;86.70;;;;;;5077949;27;45079;-57
2023/09/14 04:50:42;;;;;;;1.95;0.90;;;23.00;86.70;;;;;;5080489;28;45191;-57
2023/09/14 04:53:10;;;;;;;1.40;1.00;;;23.00;86.70;;;;;;5083143;28;45268;-56
2023/09/14 04:55:37;;;;;;;2.83;1.30;;;23.00;87.50;;;;;;5083938;27;45113;-56
2023/09/14 04:58:04;;;;;;;2.85;1.08;;;23.00;86.40;;;;;;5077761;28;44685;-57
2023/09/14 05:00:33;;;;;;;3.83;1.08;;;23.00;86.20;;;;;;5080895;28;46281;-57
2023/09/14 05:03:02;;;;;;;2.33;1.35;;;22.90;84.80;;;;;;5081631;28;44645;-56
2023/09/14 05:05:29;;;;;;;2.05;1.27;;;22.90;82.00;;;;;;5072903;28;45212;-54
2023/09/14 05:07:55;;;;;;;4.25;1.40;;;22.90;80.70;;;;;;5076783;28;45132;-54
2023/09/14 05:10:25;;;;;;;2.80;1.80;;;22.90;79.40;;;;;;5084455;28;46917;-55
2023/09/14 05:12:52;;;;;;;2.38;1.40;;;22.90;78.30;;;;;;5076809;27;45428;-56
2023/09/14 05:15:18;;;;;;;2.40;1.30;;;22.80;77.00;;;;;;5082623;28;45299;-55
2023/09/14 05:17:45;;;;;;;1.38;1.08;;;22.80;75.60;;;;;;5076302;28;45303;-54
2023/09/14 05:20:14;;;;;;;1.77;0.90;;;22.80;75.20;;;;;;5070195;28;46272;-54
2023/09/14 05:22:41;;;;;;;1.70;1.05;;;22.70;74.50;;;;;;5078678;28;45148;-55
2023/09/14 05:25:09;;;;;;;1.75;1.20;;;22.70;74.50;;;;;;5081164;28;45214;-54
2023/09/14 05:27:38;;;;;;;1.90;1.30;;;22.80;75.20;;;;;;5076024;28;45210;-56
2023/09/14 05:30:05;;;;;;;1.65;1.15;;;22.80;76.00;;;;;;5072355;28;45107;-57
2023/09/14 05:32:32;;;;;;;3.17;1.17;;;22.80;77.00;;;;;;5071314;28;45260;-56
2023/09/14 05:34:59;;;;;;;1.40;0.85;;;22.80;78.60;;;;;;5074266;27;45222;-56
2023/09/14 05:37:26;;;;;;;2.70;1.30;;;22.80;78.10;;;;;;5082578;27;45174;-56
2023/09/14 05:39:53;;;;;;;1.52;1.15;;;22.80;78.40;;;;;;5081523;28;47025;-56
2023/09/14 05:42:21;;;;;;;1.35;1.15;;;22.80;78.70;;;;;;5072009;28;45169;-56
2023/09/14 05:44:49;;;;;;;2.40;1.30;;;22.80;79.00;;;;;;5077526;28;45150;-56
2023/09/14 05:47:16;;;;;;;1.88;1.17;;;22.80;79.30;;;;;;5083105;27;45344;-56
2023/09/14 05:49:44;;;;;;;1.98;1.00;;;22.80;79.40;;;;;;5074574;27;45188;-54
2023/09/14 05:52:11;;;;;;;1.92;1.00;;;22.80;79.50;;;;;;5073619;28;45277;-54
2023/09/14 05:54:39;;;;;;;1.55;0.98;;;22.80;79.20;;;;;;5081312;28;45174;-56
2023/09/14 05:57:06;;;;;;;1.58;1.00;;;22.80;80.50;;;;;;5080368;28;45247;-56
2023/09/14 05:59:33;;;;;;;2.78;1.40;;;22.90;79.60;;;;;;5081967;28;45168;-56
2023/09/14 06:02:01;;;;;;;1.60;1.00;;;22.90;79.80;;;;;;5071802;28;45154;-56
2023/09/14 06:04:28;;;;;;;2.25;1.05;;;22.90;79.90;;;;;;5076234;28;45162;-56
2023/09/14 06:06:54;;;;;;;2.45;1.20;;;22.90;80.10;;;;;;5084091;28;45241;-56
2023/09/14 06:09:21;;;;;;;1.88;0.85;;;22.90;80.20;;;;;;5083753;28;46394;-56
2023/09/14 06:11:48;;;;;;;2.95;1.20;;;22.90;80.50;;;;;;5082691;27;45090;-56
2023/09/14 06:14:15;;;;;;;1.42;0.90;;;22.90;80.60;;;;;;5081835;28;45163;-55
2023/09/14 06:16:42;;;;;;;1.92;1.10;;;22.90;80.80;;;;;;5079136;28;45324;-55
2023/09/14 06:19:10;;;;;;;1.95;1.20;;;22.90;80.70;;;;;;5070494;28;45635;-55
2023/09/14 06:21:37;;;;;;;2.65;0.98;;;22.90;80.70;;;;;;5079097;28;45162;-56
2023/09/14 06:24:05;;;;;;;2.83;1.20;;;22.90;80.70;;;;;;5081895;28;45193;-56
2023/09/14 06:26:31;;;;;;;1.95;1.10;;;22.90;80.70;;;;;;5081107;28;45119;-56
2023/09/14 06:28:58;;;;;;;2.53;1.10;;;22.90;80.70;;;;;;5081679;28;47068;-56
2023/09/14 06:31:25;;;;;;;1.50;1.17;;;22.90;80.70;;;;;;5073665;28;45168;-56
2023/09/14 06:33:52;;;;;;;2.22;1.23;;;22.90;80.70;;;;;;5079808;28;44672;-56
2023/09/14 06:36:20;;;;;;;1.90;0.98;;;22.90;80.70;;;;;;5074153;27;45206;-56
2023/09/14 06:38:47;;;;;;;2.47;1.10;;;22.90;80.70;;;;;;5075916;28;45240;-56
2023/09/14 06:41:14;;;;;;;1.13;0.93;;;23.00;80.80;;;;;;5068964;27;45212;-56
2023/09/14 06:43:44;;;;;;;1.60;0.98;;;23.00;80.90;;;;;;5077359;28;45283;-56
2023/09/14 06:46:11;;;;;;;1.80;1.00;;;22.90;80.70;;;;;;5080916;28;45057;-56
2023/09/14 06:48:38;;;;;;;1.55;1.00;;;22.90;80.80;;;;;;5082033;28;46702;-56
2023/09/14 06:51:05;;;;;;;1.70;1.00;;;23.00;80.80;;;;;;5076007;28;45140;-56
2023/09/14 06:53:34;;;;;;;1.50;1.00;;;23.00;81.90;;;;;;5083508;28;44675;-56
2023/09/14 06:56:06;;;;;;;1.60;1.08;;;22.90;81.10;;;;;;5074010;28;45165;-56
2023/09/14 06:58:33;;;;;;;2.10;1.08;;;22.90;81.20;;;;;;5078392;28;47745;-56
2023/09/14 07:01:02;;;;;;;1.85;1.20;;;22.90;81.20;;;;;;5084397;28;45139;-56
2023/09/14 07:03:29;;;;;;;2.28;1.20;;;22.90;81.40;;;;;;5070601;27;45126;-56
2023/09/14 07:05:56;;;;;;;3.13;0.95;;;22.90;81.50;;;;;;5082998;27;45070;-56
2023/09/14 07:08:22;;;;;;;1.63;1.00;;;22.90;81.70;;;;;;5074284;28;45138;-55
2023/09/14 07:10:50;;;;;;;1.73;0.98;;;22.90;81.90;;;;;;5072609;28;45444;-55
2023/09/14 07:13:18;;;;;;;3.40;1.40;;;22.90;81.90;;;;;;5072086;28;45170;-56
2023/09/14 07:15:44;;;;;;;1.73;1.20;;;22.90;82.00;;;;;;5069379;28;44745;-56
2023/09/14 07:18:25;;;;;;;2.65;0.98;;;22.90;82.10;;;;;;5081168;28;47047;-56
2023/09/14 07:20:52;;;;;;;1.58;0.93;;;23.00;82.30;;;;;;5073636;28;45042;-56
2023/09/14 07:23:19;;;;;;;4.38;1.27;;;23.00;82.30;;;;;;5077188;28;45283;-56
2023/09/14 07:25:47;;;;;;;1.60;1.10;;;22.90;82.30;;;;;;5083054;28;45079;-56
2023/09/14 07:28:15;;;;;;;2.72;1.33;;;22.90;82.40;;;;;;5082113;27;46189;-56
2023/09/14 07:30:42;;;;;;;2.90;1.23;;;22.90;82.40;;;;;;5078366;27;45156;-55
2023/09/14 07:33:09;;;;;;;3.55;1.60;;;22.90;82.60;;;;;;5073562;28;45515;-56
2023/09/14 07:35:36;;;;;;;2.42;1.08;;;22.90;82.60;;;;;;5082415;27;45135;-56
2023/09/14 07:38:03;;;;;;;1.38;0.93;;;23.00;82.80;;;;;;5079307;28;47100;-55
2023/09/14 07:40:30;;;;;;;1.70;0.98;;;23.00;82.90;;;;;;5080696;27;45140;-55
2023/09/14 07:42:57;;;;;;;3.38;1.20;;;22.90;82.80;;;;;;5078411;28;45112;-56
2023/09/14 07:45:25;;;;;;;1.30;0.88;;;22.90;82.90;;;;;;5074765;28;45300;-55
2023/09/14 07:47:52;;;;;;;2.45;1.48;;;22.90;82.90;;;;;;5073433;28;46969;-56
2023/09/14 07:50:19;;;;;;;2.05;1.40;;;22.90;83.00;;;;;;5076608;28;45153;-55
2023/09/14 07:52:45;;;;;;;4.25;1.40;;;22.90;83.10;;;;;;5078309;28;45060;-55
2023/09/14 07:55:12;;;;;;;4.43;1.80;;;23.00;83.20;;;;;;5081535;28;45173;-55
2023/09/14 07:57:40;;;;;;;2.67;1.50;;;23.00;83.20;;;;;;5083244;28;47163;-55
2023/09/14 08:00:08;;;;;;;2.30;1.30;;;22.90;83.30;;;;;;5078964;28;44759;-55
2023/09/14 08:02:36;;;;;;;2.58;1.75;;;22.90;83.50;;;;;;5083525;27;45296;-55
2023/09/14 08:05:03;;;;;;;3.72;1.73;;;22.90;83.50;;;;;;5080651;28;45163;-55
2023/09/14 08:07:29;;;;;;;3.45;1.58;;;22.90;83.50;;;;;;5070246;28;48048;-55
2023/09/14 08:09:56;;;;;;;4.28;2.00;;;22.90;83.60;;;;;;5076582;28;45512;-55
2023/09/14 08:12:23;;;;;;;2.80;1.80;;;22.90;83.60;;;;;;5078598;28;45078;-55
2023/09/14 08:14:50;;;;;;;4.00;2.13;;;22.90;83.70;;;;;;5075772;28;44623;-55
2023/09/14 08:17:16;;;;;;;3.63;2.15;;;22.90;83.70;;;;;;5080320;28;45103;-55
2023/09/14 08:19:45;;;;;;;3.75;2.28;;;22.90;83.80;;;;;;5078030;28;45217;-55
2023/09/14 08:22:11;;;;;;;5.43;2.75;;;22.90;83.90;;;;;;5080350;28;45180;-56
2023/09/14 08:24:38;;;;;;;6.57;3.25;;;22.90;83.90;;;;;;5082976;27;45255;-55
2023/09/14 08:27:05;;;;;;;4.95;3.42;;;22.90;84.00;;;;;;5083619;28;45123;-55
2023/09/14 08:29:32;;;;;;;6.13;3.47;;;22.90;84.00;;;;;;5078571;27;45380;-55
2023/09/14 08:31:59;;;;;;;6.13;4.63;;;22.90;84.10;;;;;;5080369;28;45257;-55
2023/09/14 08:34:25;;;;;;;6.43;4.50;;;22.90;84.20;;;;;;5074443;27;45075;-55
2023/09/14 08:36:53;;;;;;;6.53;4.57;;;23.00;84.30;;;;;;5084717;28;46908;-55
2023/09/14 08:39:20;;;;;;;7.45;4.45;;;22.90;84.30;;;;;;5086179;28;45185;-55
2023/09/14 08:41:47;;;;;;;9.20;5.53;;;22.90;84.30;;;;;;5083728;28;45174;-55
2023/09/14 08:44:16;;;;;;;8.68;5.53;;;23.00;84.50;;;;;;5082265;28;45272;-55
2023/09/14 08:46:43;;;;;;;10.07;6.20;;;23.00;84.50;;;;;;5081046;28;46264;-55
2023/09/14 08:49:12;;;;;;;8.88;5.47;;;23.00;84.70;;;;;;5079982;28;45165;-55
2023/09/14 08:51:42;;;;;;;11.20;6.93;;;23.00;84.70;;;;;;5082635;28;45133;-55
2023/09/14 08:54:10;;;;;;;11.60;6.60;;;23.00;84.80;;;;;;5084438;28;45147;-55
2023/09/14 08:56:37;;;;;;;10.52;6.78;;;23.00;84.80;;;;;;5083505;28;46936;-55
2023/09/14 08:59:06;;;;;;;9.65;7.07;;;23.00;84.90;;;;;;5083658;28;45157;-55
2023/09/14 09:01:34;;;;;;;10.27;7.25;;;23.00;85.00;;;;;;5083620;27;45381;-55
2023/09/14 09:04:01;;;;;;;12.32;7.55;;;23.00;85.00;;;;;;5081541;28;45031;-55
2023/09/14 09:06:28;;;;;;;10.95;7.65;;;23.00;85.10;;;;;;5068235;27;46289;-55
2023/09/14 09:08:56;;;;;;;11.35;7.20;;;23.00;85.20;;;;;;5073011;28;45055;-55
2023/09/14 09:11:24;;;;;;;12.60;7.05;;;23.00;85.30;;;;;;5072126;27;45231;-55
2023/09/14 09:13:51;;;;;;;11.73;7.78;;;23.00;85.40;;;;;;5072632;28;45047;-55
2023/09/14 09:16:17;;;;;;;10.15;7.68;;;23.00;85.50;;;;;;5071149;28;46433;-55
2023/09/14 09:19:03;;;;;;;13.70;8.40;;;23.00;85.60;;;;;;5077315;27;45168;-55
2023/09/14 09:21:31;;;;;;;13.88;8.95;;;23.00;85.70;;;;;;5080581;27;45257;-55
2023/09/14 09:23:58;;;;;;;12.85;8.05;;;23.00;85.80;;;;;;5077682;28;45079;-55
2023/09/14 09:26:33;;;;;;;13.25;8.23;;;23.00;85.80;;;;;;5078135;27;45077;-55
2023/09/14 09:29:00;;;;;;;14.77;7.95;;;23.00;85.90;;;;;;5067486;28;45233;-55
2023/09/14 09:31:41;;;;;;;11.32;8.32;;;23.00;85.90;;;;;;5064734;28;45178;-55
2023/09/14 09:34:09;;;;;;;12.20;8.07;;;23.00;86.00;;;;;;5081433;27;45215;-56
2023/09/14 09:36:36;;;;;;;15.20;9.35;;;23.00;86.10;;;;;;5075071;27;46579;-55
2023/09/14 09:39:05;;;;;;;13.00;8.18;;;23.00;86.10;;;;;;5065277;28;45083;-55
2023/09/14 09:41:34;;;;;;;11.02;8.10;;;23.00;86.10;;;;;;5065962;28;45131;-55
2023/09/14 09:44:05;;;;;;;14.70;9.02;;;23.00;86.20;;;;;;5067307;27;45024;-55
2023/09/14 09:46:34;;;;;;;13.30;8.60;;;23.00;86.30;;;;;;5072732;28;47188;-55
2023/09/14 09:49:02;;;;;;;13.43;9.27;;;23.00;86.40;;;;;;5074864;28;45130;-55
2023/09/14 09:51:29;;;;;;;13.40;8.90;;;23.00;86.40;;;;;;5083024;28;45556;-55
2023/09/14 09:54:06;;;;;;;12.65;8.70;;;23.00;86.40;;;;;;5080007;28;45530;-55
2023/09/14 09:56:36;;;;;;;11.05;7.75;;;23.00;86.40;;;;;;5070871;28;45459;-55
2023/09/14 09:59:09;;;;;;;12.88;8.60;;;23.00;86.40;;;;;;5064901;28;45114;-55
2023/09/14 10:01:36;;;;;;;13.38;9.30;;;23.10;86.60;;;;;;5064431;28;44600;-55
2023/09/14 10:04:08;;;;;;;13.20;9.10;;;23.00;86.50;;;;;;5077617;28;45032;-55
2023/09/14 10:06:35;;;;;;;13.63;8.85;;;23.00;86.50;;;;;;5077071;28;46979;-56
2023/09/14 10:09:06;;;;;;;15.40;9.68;;;23.10;86.60;;;;;;5079809;28;45067;-55
2023/09/14 10:11:35;;;;;;;12.38;8.52;;;23.10;86.70;;;;;;5071880;28;45276;-55
2023/09/14 10:14:04;;;;;;;15.93;9.20;;;23.00;86.60;;;;;;5074251;28;45266;-56
2023/09/14 10:16:35;;;;;;;13.95;9.30;;;23.10;86.80;;;;;;5073095;28;47343;-56
2023/09/14 10:19:03;;;;;;;14.10;9.25;;;23.10;86.80;;;;;;5076382;28;45783;-55
2023/09/14 10:21:30;;;;;;;13.65;9.35;;;23.10;86.80;;;;;;5074463;28;45742;-56
2023/09/14 10:23:58;;;;;;;13.55;9.48;;;23.10;86.90;;;;;;5069141;27;45376;-58
2023/09/14 10:26:25;;;;;;;14.25;9.73;;;23.10;87.00;;;;;;5078330;28;45324;-56
2023/09/14 10:28:54;;;;;;;13.90;9.05;;;23.10;87.00;;;;;;5068635;28;45229;-55
2023/09/14 10:31:22;;;;;;;13.23;9.38;;;23.10;87.20;;;;;;5073555;27;45252;-55
2023/09/14 10:33:51;;;;;;;13.55;9.10;;;23.10;87.20;;;;;;5071864;28;45131;-55
2023/09/14 10:36:19;;;;;;;12.55;9.00;;;23.10;87.40;;;;;;5083598;28;46563;-55
2023/09/14 10:38:47;;;;;;;14.55;9.90;;;23.10;87.40;;;;;;5082895;28;45233;-55
2023/09/14 10:41:14;;;;;;;13.05;9.48;;;23.10;87.40;;;;;;5084512;28;45082;-55
2023/09/14 10:43:41;;;;;;;11.52;8.88;;;23.10;87.40;;;;;;5072346;28;45308;-55
2023/09/14 10:46:17;;;;;;;11.38;8.50;;;23.10;87.40;;;;;;5078740;28;45159;-55
2023/09/14 10:48:45;;;;;;;11.02;8.02;;;23.10;87.50;;;;;;5072347;28;45181;-55
2023/09/14 10:51:13;;;;;;;12.48;9.27;;;23.10;87.50;;;;;;5064025;28;45036;-55
2023/09/14 10:53:41;;;;;;;12.48;8.65;;;23.10;87.50;;;;;;5080690;28;45463;-55
2023/09/14 10:56:20;;;;;;;10.32;7.82;;;23.10;87.50;;;;;;5080498;28;46250;-55
2023/09/14 10:58:50;;;;;;;12.13;8.77;;;23.10;87.40;;;;;;5066917;28;45122;-55
2023/09/14 11:01:24;;;;;;;11.95;8.18;;;23.10;87.40;;;;;;5069727;28;45218;-55
2023/09/14 11:04:13;;;;;;;10.13;7.60;;;23.10;87.40;;;;;;5069904;28;45099;-55
2023/09/14 11:06:47;;;;;;;9.82;7.20;;;23.10;87.30;;;;;;5067026;28;45085;-55
2023/09/14 11:09:15;;;;;;;9.95;7.25;;;23.10;87.30;;;;;;5070555;28;45196;-55
2023/09/14 11:11:44;;;;;;;10.57;7.15;;;23.10;87.20;;;;;;5071160;28;45166;-55
2023/09/14 11:14:13;;;;;;;8.05;6.43;;;23.10;87.20;;;;;;5069159;27;45205;-55
2023/09/14 11:16:46;;;;;;;11.27;7.10;;;23.10;87.10;;;;;;5066122;28;46552;-55
2023/09/14 11:19:48;;;;;;;9.63;6.18;;;23.10;87.10;;;;;;5070349;28;45263;-55
2023/09/14 11:22:16;;;;;;;9.30;6.28;;;23.10;86.90;;;;;;5073968;28;45237;-56
2023/09/14 11:24:43;;;;;;;9.82;6.47;;;23.10;87.00;;;;;;5072179;28;45126;-56
2023/09/14 11:27:17;;;;;;;9.55;6.53;;;23.10;86.90;;;;;;5078434;27;45128;-56
2023/09/14 11:29:45;;;;;;;7.75;6.10;;;23.10;86.80;;;;;;5079218;28;45104;-56
2023/09/14 11:32:18;;;;;;;8.18;5.65;;;23.10;86.80;;;;;;5072586;27;44743;-56
2023/09/14 11:34:47;;;;;;;7.75;5.93;;;23.10;86.80;;;;;;5070599;28;45098;-56
2023/09/14 11:37:16;;;;;;;7.85;6.00;;;23.10;86.80;;;;;;5073155;28;45192;-56
2023/09/14 11:39:43;;;;;;;8.13;5.80;;;23.10;86.80;;;;;;5076932;28;45156;-56
2023/09/14 11:42:10;;;;;;;8.32;5.72;;;23.10;86.60;;;;;;5077786;28;45244;-56
2023/09/14 11:44:47;;;;;;;7.65;5.55;;;23.20;86.80;;;;;;5078489;27;45209;-56
2023/09/14 11:47:14;;;;;;;7.20;5.32;;;23.20;86.60;;;;;;5077293;28;46530;-56
2023/09/14 11:49:44;;;;;;;6.15;4.80;;;23.10;86.50;;;;;;5081127;28;45181;-56
2023/09/14 11:52:13;;;;;;;7.32;5.05;;;23.10;86.50;;;;;;5077420;28;45330;-55
2023/09/14 11:54:46;;;;;;;6.78;4.75;;;23.10;86.50;;;;;;5077818;28;45279;-56
2023/09/14 11:57:13;;;;;;;6.32;5.00;;;23.10;86.40;;;;;;5074226;28;45458;-55
2023/09/14 11:59:40;;;;;;;5.95;4.60;;;23.10;86.50;;;;;;5080827;28;45226;-55
2023/09/14 12:02:07;;;;;;;4.93;4.13;;;23.20;86.50;;;;;;5070184;27;45187;-56
2023/09/14 12:04:34;;;;;;;6.85;4.88;;;23.10;86.40;;;;;;5067375;28;45151;-56
2023/09/14 12:07:03;;;;;;;6.53;4.63;;;23.20;86.50;;;;;;5072777;28;45266;-56
2023/09/14 12:09:36;;;;;;;5.55;4.55;;;23.10;86.40;;;;;;5073442;28;44947;-56
2023/09/14 12:12:03;;;;;;;6.30;4.53;;;23.10;86.40;;;;;;5072220;28;45189;-56
2023/09/14 12:14:38;;;;;;;5.95;4.50;;;23.10;86.30;;;;;;5071136;28;45394;-56
2023/09/14 12:17:19;;;;;;;5.82;4.35;;;23.10;86.20;;;;;;5072202;28;45387;-56
2023/09/14 12:19:48;;;;;;;5.10;3.92;;;23.10;86.10;;;;;;5070976;28;45134;-56
2023/09/14 12:22:16;;;;;;;6.15;3.90;;;23.10;86.20;;;;;;5075498;27;45332;-56
2023/09/14 12:24:45;;;;;;;5.75;3.85;;;23.10;86.10;;;;;;5076256;27;45155;-56
2023/09/14 12:27:12;;;;;;;5.05;3.72;;;23.10;86.10;;;;;;5072996;28;45139;-55
2023/09/14 12:29:41;;;;;;;6.38;3.70;;;23.10;86.00;;;;;;5073583;28;45463;-56
2023/09/14 12:32:09;;;;;;;4.50;3.70;;;23.20;86.00;;;;;;5071265;28;45141;-55
2023/09/14 12:34:35;;;;;;;4.90;3.70;;;23.10;85.90;;;;;;5085847;28;45379;-55
2023/09/14 12:37:03;;;;;;;3.88;3.17;;;23.10;85.80;;;;;;5071143;28;45197;-56
2023/09/14 12:39:30;;;;;;;5.18;3.58;;;23.20;85.90;;;;;;5069577;28;45189;-55
2023/09/14 12:42:00;;;;;;;4.22;3.63;;;23.20;85.90;;;;;;5073082;28;45200;-55
2023/09/14 12:44:27;;;;;;;5.35;3.50;;;23.20;85.80;;;;;;5075924;28;45318;-55
2023/09/14 12:46:54;;;;;;;4.03;3.35;;;23.20;85.80;;;;;;5080583;28;45206;-56
2023/09/14 12:49:21;;;;;;;4.78;3.38;;;23.20;85.60;;;;;;5085232;28;45086;-55
2023/09/14 12:51:49;;;;;;;5.35;3.53;;;23.10;85.40;;;;;;5077888;28;45134;-55